sensor_id;sensor_type;location;lat;lon;timestamp;pressure;altitude;pressure_sealevel;temperature;humidity
60355;BME280;46198;51.464;-0.066;2022-08-19T00:01:40;101242.69;;;20.25;89.06
60355;BME280;46198;51.464;-0.066;2022-08-19T00:04:12;101240.47;;;20.27;85.97
60355;BME280;46198;51.464;-0.066;2022-08-19T00:06:42;101244.91;;;20.28;87.77
60355;BME280;46198;51.464;-0.066;2022-08-19T00:09:13;101250.97;;;20.30;87.88
60355;BME280;46198;51.464;-0.066;2022-08-19T00:11:43;101249.84;;;20.26;90.43
60355;BME280;46198;51.464;-0.066;2022-08-19T00:14:13;101248.75;;;20.32;87.46
60355;BME280;46198;51.464;-0.066;2022-08-19T00:16:42;101248.22;;;20.30;90.37
60355;BME280;46198;51.464;-0.066;2022-08-19T00:19:12;101257.56;;;20.34;89.16
60355;BME280;46198;51.464;-0.066;2022-08-19T00:21:40;101251.78;;;20.31;96.48
60355;BME280;46198;51.464;-0.066;2022-08-19T00:24:10;101238.84;;;20.36;92.78
60355;BME280;46198;51.464;-0.066;2022-08-19T00:26:40;101233.88;;;20.33;95.24
60355;BME280;46198;51.464;-0.066;2022-08-19T00:29:10;101232.75;;;20.34;92.18
60355;BME280;46198;51.464;-0.066;2022-08-19T00:31:39;101232.75;;;20.29;93.79
60355;BME280;46198;51.464;-0.066;2022-08-19T00:34:13;101241.03;;;20.24;95.40
60355;BME280;46198;51.464;-0.066;2022-08-19T00:36:42;101232.50;;;20.31;93.49
60355;BME280;46198;51.464;-0.066;2022-08-19T00:39:11;101228.06;;;20.30;94.21
60355;BME280;46198;51.464;-0.066;2022-08-19T00:41:40;101221.47;;;20.26;93.88
60355;BME280;46198;51.464;-0.066;2022-08-19T00:44:13;101216.22;;;20.29;92.73
60355;BME280;46198;51.464;-0.066;2022-08-19T00:46:44;101214.81;;;20.27;91.98
60355;BME280;46198;51.464;-0.066;2022-08-19T00:49:29;101213.44;;;20.19;94.89
60355;BME280;46198;51.464;-0.066;2022-08-19T00:52:02;101217.31;;;20.18;93.61
60355;BME280;46198;51.464;-0.066;2022-08-19T00:54:32;101211.25;;;20.16;95.25
60355;BME280;46198;51.464;-0.066;2022-08-19T00:57:02;101212.63;;;20.19;92.93
60355;BME280;46198;51.464;-0.066;2022-08-19T00:59:34;101214.56;;;20.18;93.67
60355;BME280;46198;51.464;-0.066;2022-08-19T01:02:23;101214.56;;;20.23;95.00
60355;BME280;46198;51.464;-0.066;2022-08-19T01:04:53;101211.81;;;20.23;95.72
60355;BME280;46198;51.464;-0.066;2022-08-19T01:07:21;101212.88;;;20.27;93.90
60355;BME280;46198;51.464;-0.066;2022-08-19T01:09:50;101212.34;;;20.20;95.13
60355;BME280;46198;51.464;-0.066;2022-08-19T01:12:18;101202.41;;;20.24;95.86
60355;BME280;46198;51.464;-0.066;2022-08-19T01:14:46;101214.00;;;20.26;95.74
60355;BME280;46198;51.464;-0.066;2022-08-19T01:17:16;101207.94;;;20.29;95.89
60355;BME280;46198;51.464;-0.066;2022-08-19T01:19:46;101205.72;;;20.16;98.68
60355;BME280;46198;51.464;-0.066;2022-08-19T01:22:20;101214.56;;;20.28;94.78
60355;BME280;46198;51.464;-0.066;2022-08-19T01:24:58;101218.97;;;20.24;96.84
60355;BME280;46198;51.464;-0.066;2022-08-19T01:27:26;101217.88;;;20.30;95.78
60355;BME280;46198;51.464;-0.066;2022-08-19T01:30:12;101219.25;;;20.28;98.49
60355;BME280;46198;51.464;-0.066;2022-08-19T01:32:42;101217.03;;;20.30;97.47
60355;BME280;46198;51.464;-0.066;2022-08-19T01:35:12;101215.66;;;20.32;95.32
60355;BME280;46198;51.464;-0.066;2022-08-19T01:37:45;101214.81;;;20.27;96.80
60355;BME280;46198;51.464;-0.066;2022-08-19T01:40:16;101207.38;;;20.32;95.65
60355;BME280;46198;51.464;-0.066;2022-08-19T01:42:47;101202.41;;;20.29;96.77
60355;BME280;46198;51.464;-0.066;2022-08-19T01:45:16;101207.94;;;20.24;97.43
60355;BME280;46198;51.464;-0.066;2022-08-19T01:47:45;101202.41;;;20.19;98.90
60355;BME280;46198;51.464;-0.066;2022-08-19T01:50:27;101206.28;;;20.23;96.37
60355;BME280;46198;51.464;-0.066;2022-08-19T01:52:55;101201.31;;;20.20;98.21
60355;BME280;46198;51.464;-0.066;2022-08-19T01:55:34;101209.59;;;20.15;99.67
60355;BME280;46198;51.464;-0.066;2022-08-19T01:58:10;101209.59;;;20.15;99.44
60355;BME280;46198;51.464;-0.066;2022-08-19T02:00:40;101216.75;;;20.16;98.36
60355;BME280;46198;51.464;-0.066;2022-08-19T02:03:08;101200.22;;;20.16;97.45
60355;BME280;46198;51.464;-0.066;2022-08-19T02:05:38;101211.25;;;20.16;98.52
60355;BME280;46198;51.464;-0.066;2022-08-19T02:08:07;101207.94;;;20.14;98.12
60355;BME280;46198;51.464;-0.066;2022-08-19T02:10:40;101209.03;;;20.18;96.53
60355;BME280;46198;51.464;-0.066;2022-08-19T02:13:09;101207.09;;;20.19;97.03
60355;BME280;46198;51.464;-0.066;2022-08-19T02:15:37;101207.41;;;20.17;96.60
60355;BME280;46198;51.464;-0.066;2022-08-19T02:18:06;101207.09;;;20.19;95.83
60355;BME280;46198;51.464;-0.066;2022-08-19T02:20:35;101206.03;;;20.20;98.30
60355;BME280;46198;51.464;-0.066;2022-08-19T02:23:04;101214.00;;;20.21;97.21
60355;BME280;46198;51.464;-0.066;2022-08-19T02:25:46;101217.88;;;20.20;98.42
60355;BME280;46198;51.464;-0.066;2022-08-19T02:28:15;101206.03;;;20.20;97.85
60355;BME280;46198;51.464;-0.066;2022-08-19T02:30:47;101203.78;;;20.22;98.42
60355;BME280;46198;51.464;-0.066;2022-08-19T02:33:16;101209.59;;;20.25;96.97
60355;BME280;46198;51.464;-0.066;2022-08-19T02:35:45;101210.69;;;20.24;97.25
60355;BME280;46198;51.464;-0.066;2022-08-19T02:38:14;101204.09;;;20.25;97.26
60355;BME280;46198;51.464;-0.066;2022-08-19T02:40:58;101209.31;;;20.27;98.21
60355;BME280;46198;51.464;-0.066;2022-08-19T02:43:28;101211.25;;;20.26;96.77
60355;BME280;46198;51.464;-0.066;2022-08-19T02:46:00;101208.22;;;20.28;97.11
60355;BME280;46198;51.464;-0.066;2022-08-19T02:48:29;101215.38;;;20.29;99.34
60355;BME280;46198;51.464;-0.066;2022-08-19T02:50:59;101216.78;;;20.36;96.64
60355;BME280;46198;51.464;-0.066;2022-08-19T02:53:28;101215.09;;;20.35;96.85
60355;BME280;46198;51.464;-0.066;2022-08-19T02:55:57;101208.75;;;20.35;97.20
60355;BME280;46198;51.464;-0.066;2022-08-19T02:58:26;101210.13;;;20.32;98.03
60355;BME280;46198;51.464;-0.066;2022-08-19T03:00:55;101218.16;;;20.34;100.00
60355;BME280;46198;51.464;-0.066;2022-08-19T03:03:25;101220.34;;;20.37;98.43
60355;BME280;46198;51.464;-0.066;2022-08-19T03:06:03;101218.72;;;20.41;97.46
60355;BME280;46198;51.464;-0.066;2022-08-19T03:08:32;101220.63;;;20.41;97.24
60355;BME280;46198;51.464;-0.066;2022-08-19T03:11:02;101218.97;;;20.40;98.18
60355;BME280;46198;51.464;-0.066;2022-08-19T03:13:31;101216.78;;;20.47;97.54
60355;BME280;46198;51.464;-0.066;2022-08-19T03:15:59;101218.41;;;20.48;96.40
60355;BME280;46198;51.464;-0.066;2022-08-19T03:18:27;101222.00;;;20.43;96.48
60355;BME280;46198;51.464;-0.066;2022-08-19T03:20:55;101221.47;;;20.41;98.45
60355;BME280;46198;51.464;-0.066;2022-08-19T03:23:23;101220.06;;;20.44;97.15
60355;BME280;46198;51.464;-0.066;2022-08-19T03:25:52;101215.09;;;20.46;97.50
60355;BME280;46198;51.464;-0.066;2022-08-19T03:28:42;101213.44;;;20.45;97.15
60355;BME280;46198;51.464;-0.066;2022-08-19T03:31:19;101214.28;;;20.45;97.67
60355;BME280;46198;51.464;-0.066;2022-08-19T03:34:08;101211.25;;;20.42;97.61
60355;BME280;46198;51.464;-0.066;2022-08-19T03:36:39;101206.81;;;20.41;97.18
60355;BME280;46198;51.464;-0.066;2022-08-19T03:39:09;101210.69;;;20.40;96.85
60355;BME280;46198;51.464;-0.066;2022-08-19T03:41:40;101217.03;;;20.40;98.07
60355;BME280;46198;51.464;-0.066;2022-08-19T03:44:13;101225.03;;;20.42;96.65
60355;BME280;46198;51.464;-0.066;2022-08-19T03:46:46;101216.22;;;20.40;98.47
60355;BME280;46198;51.464;-0.066;2022-08-19T03:49:15;101229.19;;;20.34;100.00
60355;BME280;46198;51.464;-0.066;2022-08-19T03:51:45;101228.34;;;20.33;100.00
60355;BME280;46198;51.464;-0.066;2022-08-19T03:54:15;101229.19;;;20.34;100.00
60355;BME280;46198;51.464;-0.066;2022-08-19T03:56:45;101232.19;;;20.32;100.00
60355;BME280;46198;51.464;-0.066;2022-08-19T03:59:18;101239.38;;;20.28;100.00
60355;BME280;46198;51.464;-0.066;2022-08-19T04:01:46;101238.00;;;20.31;100.00
60355;BME280;46198;51.464;-0.066;2022-08-19T04:04:15;101234.94;;;20.27;100.00
60355;BME280;46198;51.464;-0.066;2022-08-19T04:06:45;101234.69;;;20.24;100.00
60355;BME280;46198;51.464;-0.066;2022-08-19T04:09:15;101234.94;;;20.27;100.00
60355;BME280;46198;51.464;-0.066;2022-08-19T04:11:46;101224.47;;;20.24;100.00
60355;BME280;46198;51.464;-0.066;2022-08-19T04:14:18;101231.09;;;20.23;100.00
60355;BME280;46198;51.464;-0.066;2022-08-19T04:16:47;101224.47;;;20.19;100.00
60355;BME280;46198;51.464;-0.066;2022-08-19T04:19:17;101234.66;;;20.13;100.00
60355;BME280;46198;51.464;-0.066;2022-08-19T04:21:48;101221.44;;;20.10;100.00
60355;BME280;46198;51.464;-0.066;2022-08-19T04:24:17;101230.00;;;20.14;100.00
60355;BME280;46198;51.464;-0.066;2022-08-19T04:26:45;101227.25;;;20.14;100.00
60355;BME280;46198;51.464;-0.066;2022-08-19T04:29:16;101223.94;;;20.12;100.00
60355;BME280;46198;51.464;-0.066;2022-08-19T04:31:46;101237.72;;;20.12;100.00
60355;BME280;46198;51.464;-0.066;2022-08-19T04:34:17;101228.59;;;20.17;100.00
60355;BME280;46198;51.464;-0.066;2022-08-19T04:36:49;101233.28;;;20.11;100.00
60355;BME280;46198;51.464;-0.066;2022-08-19T04:39:21;101233.84;;;20.13;100.00
60355;BME280;46198;51.464;-0.066;2022-08-19T04:41:50;101236.03;;;20.11;100.00
60355;BME280;46198;51.464;-0.066;2022-08-19T04:44:36;101230.25;;;20.07;100.00
60355;BME280;46198;51.464;-0.066;2022-08-19T04:47:12;101231.09;;;20.08;100.00
60355;BME280;46198;51.464;-0.066;2022-08-19T04:49:40;101249.28;;;20.09;100.00
60355;BME280;46198;51.464;-0.066;2022-08-19T04:52:08;101243.78;;;20.09;100.00
60355;BME280;46198;51.464;-0.066;2022-08-19T04:54:36;101244.84;;;20.03;100.00
60355;BME280;46198;51.464;-0.066;2022-08-19T04:57:07;101247.06;;;20.01;100.00
60355;BME280;46198;51.464;-0.066;2022-08-19T04:59:38;101248.44;;;19.98;100.00
60355;BME280;46198;51.464;-0.066;2022-08-19T05:02:08;101252.00;;;19.93;100.00
60355;BME280;46198;51.464;-0.066;2022-08-19T05:04:37;101262.50;;;19.97;100.00
60355;BME280;46198;51.464;-0.066;2022-08-19T05:07:06;101265.78;;;19.88;100.00
60355;BME280;46198;51.464;-0.066;2022-08-19T05:09:35;101263.59;;;19.90;100.00
60355;BME280;46198;51.464;-0.066;2022-08-19T05:12:23;101268.28;;;19.90;100.00
60355;BME280;46198;51.464;-0.066;2022-08-19T05:14:57;101263.81;;;19.84;100.00
60355;BME280;46198;51.464;-0.066;2022-08-19T05:17:26;101263.56;;;19.85;100.00
60355;BME280;46198;51.464;-0.066;2022-08-19T05:19:59;101260.53;;;19.82;100.00
60355;BME280;46198;51.464;-0.066;2022-08-19T05:22:46;101264.38;;;19.81;100.00
60355;BME280;46198;51.464;-0.066;2022-08-19T05:25:17;101258.03;;;19.75;100.00
60355;BME280;46198;51.464;-0.066;2022-08-19T05:27:46;101267.38;;;19.69;100.00
60355;BME280;46198;51.464;-0.066;2022-08-19T05:30:17;101274.28;;;19.72;100.00
60355;BME280;46198;51.464;-0.066;2022-08-19T05:33:05;101267.94;;;19.71;100.00
60355;BME280;46198;51.464;-0.066;2022-08-19T05:35:35;101271.78;;;19.70;100.00
60355;BME280;46198;51.464;-0.066;2022-08-19T05:38:04;101274.84;;;19.74;100.00
60355;BME280;46198;51.464;-0.066;2022-08-19T05:40:34;101274.53;;;19.70;100.00
60355;BME280;46198;51.464;-0.066;2022-08-19T05:43:05;101270.69;;;19.71;100.00
60355;BME280;46198;51.464;-0.066;2022-08-19T05:45:39;101274.84;;;19.74;100.00
60355;BME280;46198;51.464;-0.066;2022-08-19T05:48:09;101279.81;;;19.77;100.00
60355;BME280;46198;51.464;-0.066;2022-08-19T05:50:39;101285.06;;;19.83;100.00
60355;BME280;46198;51.464;-0.066;2022-08-19T05:53:07;101275.72;;;19.84;100.00
60355;BME280;46198;51.464;-0.066;2022-08-19T05:55:36;101286.72;;;19.84;100.00
60355;BME280;46198;51.464;-0.066;2022-08-19T05:58:06;101282.03;;;19.85;100.00
60355;BME280;46198;51.464;-0.066;2022-08-19T06:00:35;101286.72;;;19.84;100.00
60355;BME280;46198;51.464;-0.066;2022-08-19T06:03:05;101283.97;;;19.84;100.00
60355;BME280;46198;51.464;-0.066;2022-08-19T06:05:40;101280.09;;;19.80;100.00
60355;BME280;46198;51.464;-0.066;2022-08-19T06:08:19;101280.38;;;19.84;100.00
60355;BME280;46198;51.464;-0.066;2022-08-19T06:11:15;101286.16;;;19.82;100.00
60355;BME280;46198;51.464;-0.066;2022-08-19T06:13:45;101293.88;;;19.85;100.00
60355;BME280;46198;51.464;-0.066;2022-08-19T06:16:14;101290.84;;;19.77;100.00
60355;BME280;46198;51.464;-0.066;2022-08-19T06:18:48;101284.78;;;19.80;100.00
60355;BME280;46198;51.464;-0.066;2022-08-19T06:21:19;101291.09;;;19.80;100.00
60355;BME280;46198;51.464;-0.066;2022-08-19T06:23:48;101289.47;;;19.79;100.00
60355;BME280;46198;51.464;-0.066;2022-08-19T06:26:18;101286.72;;;19.84;100.00
60355;BME280;46198;51.464;-0.066;2022-08-19T06:28:47;101288.91;;;19.82;100.00
60355;BME280;46198;51.464;-0.066;2022-08-19T06:31:17;101295.22;;;19.78;100.00
60355;BME280;46198;51.464;-0.066;2022-08-19T06:33:49;101292.75;;;19.71;100.00
60355;BME280;46198;51.464;-0.066;2022-08-19T06:36:18;101301.84;;;19.77;100.00
60355;BME280;46198;51.464;-0.066;2022-08-19T06:38:50;101298.25;;;19.81;100.00
60355;BME280;46198;51.464;-0.066;2022-08-19T06:41:19;101301.88;;;19.82;100.00
60355;BME280;46198;51.464;-0.066;2022-08-19T06:43:47;101317.00;;;19.79;100.00
60355;BME280;46198;51.464;-0.066;2022-08-19T06:46:20;101307.63;;;19.80;100.00
60355;BME280;46198;51.464;-0.066;2022-08-19T06:48:50;101307.06;;;19.73;100.00
60355;BME280;46198;51.464;-0.066;2022-08-19T06:51:21;101305.72;;;19.81;100.00
60355;BME280;46198;51.464;-0.066;2022-08-19T06:53:53;101308.47;;;19.81;100.00
60355;BME280;46198;51.464;-0.066;2022-08-19T06:56:23;101314.28;;;19.84;100.00
60355;BME280;46198;51.464;-0.066;2022-08-19T06:58:57;101313.72;;;19.82;100.00
60355;BME280;46198;51.464;-0.066;2022-08-19T07:01:25;101315.63;;;19.77;100.00
60355;BME280;46198;51.464;-0.066;2022-08-19T07:03:55;101322.22;;;19.76;100.00
60355;BME280;46198;51.464;-0.066;2022-08-19T07:06:24;101325.50;;;19.67;100.00
60355;BME280;46198;51.464;-0.066;2022-08-19T07:09:12;101326.09;;;19.75;100.00
60355;BME280;46198;51.464;-0.066;2022-08-19T07:11:45;101322.22;;;19.76;100.00
60355;BME280;46198;51.464;-0.066;2022-08-19T07:14:16;101329.66;;;19.75;100.00
60355;BME280;46198;51.464;-0.066;2022-08-19T07:16:47;101329.41;;;19.77;100.00
60355;BME280;46198;51.464;-0.066;2022-08-19T07:19:17;101323.94;;;19.87;100.00
60355;BME280;46198;51.464;-0.066;2022-08-19T07:21:46;101341.28;;;19.87;100.00
60355;BME280;46198;51.464;-0.066;2022-08-19T07:24:17;101336.03;;;19.86;100.00
60355;BME280;46198;51.464;-0.066;2022-08-19T07:26:45;101339.38;;;19.88;100.00
60355;BME280;46198;51.464;-0.066;2022-08-19T07:29:19;101342.41;;;19.91;100.00
60355;BME280;46198;51.464;-0.066;2022-08-19T07:31:52;101342.91;;;19.78;100.00
60355;BME280;46198;51.464;-0.066;2022-08-19T07:34:24;101337.94;;;19.80;100.00
60355;BME280;46198;51.464;-0.066;2022-08-19T07:36:55;101340.47;;;19.92;100.00
60355;BME280;46198;51.464;-0.066;2022-08-19T07:39:25;101332.22;;;19.97;100.00
60355;BME280;46198;51.464;-0.066;2022-08-19T07:41:57;101337.47;;;19.99;100.00
60355;BME280;46198;51.464;-0.066;2022-08-19T07:44:25;101325.91;;;20.02;100.00
60355;BME280;46198;51.464;-0.066;2022-08-19T07:46:56;101328.94;;;20.10;100.00
60355;BME280;46198;51.464;-0.066;2022-08-19T07:49:26;101335.31;;;20.16;100.00
60355;BME280;46198;51.464;-0.066;2022-08-19T07:51:57;101332.00;;;20.24;100.00
60355;BME280;46198;51.464;-0.066;2022-08-19T07:54:27;101328.19;;;20.25;100.00
60355;BME280;46198;51.464;-0.066;2022-08-19T07:56:56;101335.91;;;20.28;99.20
60355;BME280;46198;51.464;-0.066;2022-08-19T07:59:25;101325.44;;;20.30;95.30
60355;BME280;46198;51.464;-0.066;2022-08-19T08:01:53;101329.84;;;20.31;90.17
60355;BME280;46198;51.464;-0.066;2022-08-19T08:04:22;101335.38;;;20.42;95.60
60355;BME280;46198;51.464;-0.066;2022-08-19T08:07:09;101340.34;;;20.50;95.44
60355;BME280;46198;51.464;-0.066;2022-08-19T08:09:58;101341.16;;;20.45;95.12
60355;BME280;46198;51.464;-0.066;2022-08-19T08:12:36;101339.53;;;20.49;96.83
60355;BME280;46198;51.464;-0.066;2022-08-19T08:15:23;101346.41;;;20.52;92.96
60355;BME280;46198;51.464;-0.066;2022-08-19T08:18:11;101337.03;;;20.53;95.48
60355;BME280;46198;51.464;-0.066;2022-08-19T08:20:40;101341.47;;;20.54;93.70
60355;BME280;46198;51.464;-0.066;2022-08-19T08:23:09;101339.53;;;20.59;90.68
60355;BME280;46198;51.464;-0.066;2022-08-19T08:25:54;101354.69;;;20.47;88.72
60355;BME280;46198;51.464;-0.066;2022-08-19T08:28:24;101356.03;;;20.34;88.96
60355;BME280;46198;51.464;-0.066;2022-08-19T08:30:56;101353.00;;;20.35;89.61
60355;BME280;46198;51.464;-0.066;2022-08-19T08:33:28;101353.56;;;20.43;90.39
60355;BME280;46198;51.464;-0.066;2022-08-19T08:36:01;101350.56;;;20.44;90.33
60355;BME280;46198;51.464;-0.066;2022-08-19T08:38:32;101342.81;;;20.51;90.27
60355;BME280;46198;51.464;-0.066;2022-08-19T08:41:10;101355.75;;;20.41;89.04
60355;BME280;46198;51.464;-0.066;2022-08-19T08:43:48;101343.97;;;20.55;90.89
60355;BME280;46198;51.464;-0.066;2022-08-19T08:46:21;101354.47;;;20.58;86.99
60355;BME280;46198;51.464;-0.066;2022-08-19T08:49:02;101351.41;;;20.65;89.29
60355;BME280;46198;51.464;-0.066;2022-08-19T08:51:38;101348.13;;;20.63;84.85
60355;BME280;46198;51.464;-0.066;2022-08-19T08:54:18;101350.31;;;20.61;86.58
60355;BME280;46198;51.464;-0.066;2022-08-19T08:56:49;101356.38;;;20.73;86.66
60355;BME280;46198;51.464;-0.066;2022-08-19T08:59:24;101356.94;;;20.75;84.36
60355;BME280;46198;51.464;-0.066;2022-08-19T09:01:54;101353.91;;;20.87;85.02
60355;BME280;46198;51.464;-0.066;2022-08-19T09:04:22;101357.78;;;21.12;81.05
60355;BME280;46198;51.464;-0.066;2022-08-19T09:06:54;101353.06;;;21.07;86.30
60355;BME280;46198;51.464;-0.066;2022-08-19T09:09:29;101349.19;;;20.98;78.94
60355;BME280;46198;51.464;-0.066;2022-08-19T09:12:06;101356.34;;;21.24;76.80
60355;BME280;46198;51.464;-0.066;2022-08-19T09:14:45;101343.59;;;21.59;78.84
60355;BME280;46198;51.464;-0.066;2022-08-19T09:17:19;101350.22;;;21.63;72.70
60355;BME280;46198;51.464;-0.066;2022-08-19T09:19:52;101341.88;;;21.79;71.15
60355;BME280;46198;51.464;-0.066;2022-08-19T09:22:21;101347.75;;;22.17;71.75
60355;BME280;46198;51.464;-0.066;2022-08-19T09:24:54;101344.53;;;22.49;65.67
60355;BME280;46198;51.464;-0.066;2022-08-19T09:27:24;101341.34;;;22.31;64.05
60355;BME280;46198;51.464;-0.066;2022-08-19T09:30:16;101336.75;;;22.06;64.22
60355;BME280;46198;51.464;-0.066;2022-08-19T09:32:45;101336.59;;;22.42;64.90
60355;BME280;46198;51.464;-0.066;2022-08-19T09:35:19;101346.00;;;22.75;67.98
60355;BME280;46198;51.464;-0.066;2022-08-19T09:37:50;101340.41;;;22.86;67.32
60355;BME280;46198;51.464;-0.066;2022-08-19T09:40:27;101338.66;;;22.55;65.99
60355;BME280;46198;51.464;-0.066;2022-08-19T09:43:00;101344.47;;;22.59;66.03
60355;BME280;46198;51.464;-0.066;2022-08-19T09:45:38;101346.31;;;23.08;65.23
60355;BME280;46198;51.464;-0.066;2022-08-19T09:48:06;101336.50;;;23.21;63.69
60355;BME280;46198;51.464;-0.066;2022-08-19T09:50:35;101335.84;;;23.53;62.77
60355;BME280;46198;51.464;-0.066;2022-08-19T09:53:18;101331.53;;;23.42;63.59
60355;BME280;46198;51.464;-0.066;2022-08-19T09:55:54;101334.41;;;23.08;62.26
60355;BME280;46198;51.464;-0.066;2022-08-19T09:58:22;101336.53;;;22.47;65.09
60355;BME280;46198;51.464;-0.066;2022-08-19T10:00:54;101336.06;;;23.09;65.14
60355;BME280;46198;51.464;-0.066;2022-08-19T10:03:22;101332.38;;;23.18;63.78
60355;BME280;46198;51.464;-0.066;2022-08-19T10:05:57;101337.34;;;22.82;63.83
60355;BME280;46198;51.464;-0.066;2022-08-19T10:08:28;101336.44;;;22.57;63.64
60355;BME280;46198;51.464;-0.066;2022-08-19T10:10:59;101336.69;;;22.17;64.22
60355;BME280;46198;51.464;-0.066;2022-08-19T10:13:48;101346.69;;;22.57;65.95
60355;BME280;46198;51.464;-0.066;2022-08-19T10:16:20;101349.50;;;22.52;66.24
60355;BME280;46198;51.464;-0.066;2022-08-19T10:18:54;101346.41;;;22.64;64.78
60355;BME280;46198;51.464;-0.066;2022-08-19T10:21:27;101349.47;;;22.57;65.31
60355;BME280;46198;51.464;-0.066;2022-08-19T10:24:00;101350.72;;;22.35;64.87
60355;BME280;46198;51.464;-0.066;2022-08-19T10:26:34;101351.41;;;22.56;66.48
60355;BME280;46198;51.464;-0.066;2022-08-19T10:29:04;101357.53;;;22.53;64.94
60355;BME280;46198;51.464;-0.066;2022-08-19T10:31:35;101355.78;;;22.63;65.64
60355;BME280;46198;51.464;-0.066;2022-08-19T10:34:24;101349.19;;;22.59;66.32
60355;BME280;46198;51.464;-0.066;2022-08-19T10:36:55;101357.50;;;22.59;65.32
60355;BME280;46198;51.464;-0.066;2022-08-19T10:39:28;101353.06;;;22.57;67.49
60355;BME280;46198;51.464;-0.066;2022-08-19T10:42:04;101366.63;;;22.09;66.34
60355;BME280;46198;51.464;-0.066;2022-08-19T10:44:33;101361.03;;;22.25;65.34
60355;BME280;46198;51.464;-0.066;2022-08-19T10:47:02;101360.00;;;22.05;66.23
60355;BME280;46198;51.464;-0.066;2022-08-19T10:49:43;101359.97;;;22.21;66.57
60355;BME280;46198;51.464;-0.066;2022-08-19T10:52:29;101356.50;;;22.39;65.66
60355;BME280;46198;51.464;-0.066;2022-08-19T10:55:06;101359.88;;;22.31;66.54
60355;BME280;46198;51.464;-0.066;2022-08-19T10:57:57;101361.59;;;22.22;64.72
60355;BME280;46198;51.464;-0.066;2022-08-19T11:00:28;101362.72;;;22.16;64.24
60355;BME280;46198;51.464;-0.066;2022-08-19T11:02:57;101367.50;;;21.95;63.79
60355;BME280;46198;51.464;-0.066;2022-08-19T11:05:25;101365.50;;;22.21;64.79
60355;BME280;46198;51.464;-0.066;2022-08-19T11:07:55;101353.03;;;22.13;65.13
60355;BME280;46198;51.464;-0.066;2022-08-19T11:10:24;101367.72;;;22.08;65.08
60355;BME280;46198;51.464;-0.066;2022-08-19T11:12:52;101364.38;;;22.22;63.51
60355;BME280;46198;51.464;-0.066;2022-08-19T11:15:22;101369.34;;;22.20;63.41
60355;BME280;46198;51.464;-0.066;2022-08-19T11:17:51;101363.22;;;22.28;64.42
60355;BME280;46198;51.464;-0.066;2022-08-19T11:20:21;101367.66;;;22.29;62.91
60355;BME280;46198;51.464;-0.066;2022-08-19T11:22:51;101362.63;;;22.31;62.68
60355;BME280;46198;51.464;-0.066;2022-08-19T11:25:20;101372.56;;;22.42;62.88
60355;BME280;46198;51.464;-0.066;2022-08-19T11:27:49;101366.66;;;22.54;59.80
60355;BME280;46198;51.464;-0.066;2022-08-19T11:30:19;101363.78;;;22.69;62.56
60355;BME280;46198;51.464;-0.066;2022-08-19T11:32:48;101357.38;;;22.74;60.19
60355;BME280;46198;51.464;-0.066;2022-08-19T11:35:17;101356.22;;;22.80;61.60
60355;BME280;46198;51.464;-0.066;2022-08-19T11:37:46;101362.56;;;22.46;54.69
60355;BME280;46198;51.464;-0.066;2022-08-19T11:40:15;101368.59;;;22.53;55.80
60355;BME280;46198;51.464;-0.066;2022-08-19T11:42:43;101365.16;;;22.72;55.62
60355;BME280;46198;51.464;-0.066;2022-08-19T11:45:24;101369.25;;;22.40;54.65
60355;BME280;46198;51.464;-0.066;2022-08-19T11:47:58;101368.72;;;22.33;53.79
60355;BME280;46198;51.464;-0.066;2022-08-19T11:50:26;101371.50;;;22.28;53.07
60355;BME280;46198;51.464;-0.066;2022-08-19T11:52:54;101367.56;;;22.39;55.50
60355;BME280;46198;51.464;-0.066;2022-08-19T11:55:23;101375.00;;;22.49;52.85
60355;BME280;46198;51.464;-0.066;2022-08-19T11:57:51;101371.66;;;22.52;52.12
60355;BME280;46198;51.464;-0.066;2022-08-19T12:00:19;101371.34;;;22.59;52.94
60355;BME280;46198;51.464;-0.066;2022-08-19T12:02:48;101370.25;;;22.54;52.46
60355;BME280;46198;51.464;-0.066;2022-08-19T12:05:18;101364.13;;;22.57;53.02
60355;BME280;46198;51.464;-0.066;2022-08-19T12:07:46;101361.63;;;22.06;50.50
60355;BME280;46198;51.464;-0.066;2022-08-19T12:10:14;101370.34;;;22.39;51.16
60355;BME280;46198;51.464;-0.066;2022-08-19T12:12:45;101373.06;;;22.44;49.65
60355;BME280;46198;51.464;-0.066;2022-08-19T12:15:25;101370.94;;;22.31;50.34
60355;BME280;46198;51.464;-0.066;2022-08-19T12:18:03;101371.66;;;22.52;50.28
60355;BME280;46198;51.464;-0.066;2022-08-19T12:20:36;101362.03;;;22.39;48.25
60355;BME280;46198;51.464;-0.066;2022-08-19T12:23:07;101363.53;;;22.61;50.21
60355;BME280;46198;51.464;-0.066;2022-08-19T12:25:51;101366.91;;;22.57;47.94
60355;BME280;46198;51.464;-0.066;2022-08-19T12:28:37;101373.03;;;22.49;46.58
60355;BME280;46198;51.464;-0.066;2022-08-19T12:31:05;101370.59;;;22.43;48.12
60355;BME280;46198;51.464;-0.066;2022-08-19T12:33:34;101382.56;;;22.28;47.13
60355;BME280;46198;51.464;-0.066;2022-08-19T12:36:06;101376.44;;;22.36;46.88
60355;BME280;46198;51.464;-0.066;2022-08-19T12:38:35;101378.63;;;22.39;47.77
60355;BME280;46198;51.464;-0.066;2022-08-19T12:41:05;101374.06;;;22.64;48.95
60355;BME280;46198;51.464;-0.066;2022-08-19T12:43:33;101371.56;;;22.62;47.95
60355;BME280;46198;51.464;-0.066;2022-08-19T12:46:02;101363.81;;;22.64;47.42
60355;BME280;46198;51.464;-0.066;2022-08-19T12:48:32;101362.88;;;22.40;46.35
60355;BME280;46198;51.464;-0.066;2022-08-19T12:51:12;101365.84;;;22.53;48.16
60355;BME280;46198;51.464;-0.066;2022-08-19T12:53:42;101377.13;;;22.62;47.69
60355;BME280;46198;51.464;-0.066;2022-08-19T12:56:11;101369.19;;;22.50;46.75
60355;BME280;46198;51.464;-0.066;2022-08-19T12:58:44;101376.59;;;22.55;45.77
60355;BME280;46198;51.464;-0.066;2022-08-19T13:01:18;101372.91;;;22.70;47.85
60355;BME280;46198;51.464;-0.066;2022-08-19T13:03:49;101362.78;;;22.89;43.89